Avisos AEMET Campiña SevillanaSin Avisos    + INFO

Informes METAR cercanos

 

LEZL - Sevilla (civ/Mil, Spain
Distancia de la estación: O 16km
Actualización: 04/07/2022 00:30
Despejado
Despejado
 Viento del OSO
Viento: OSO 17 km/h
Temperatura: 21°C
Rocío: 14°C
Humedad: 64%
Barómetro: 1019 hPa
Resumen: Despejado
Visibilidad: más de 10 km
2022/07/03 22:30 LEZL 032230Z 24009KT 200V280 CAVOK 21/14 Q1019 NOSIG
LEMO - Moron (sp-Usafb), Spain
Distancia de la estación: SSE 27km
Actualización: 04/07/2022 01:00
Despejado
Despejado
 Viento del SO
Viento: SO 7 km/h
Temperatura: 19°C
Rocío: 14°C
Humedad: 73%
Barómetro: 1020 hPa
Resumen: Despejado
Visibilidad: más de 10 km
2022/07/03 23:00 LEMO 032300Z 22004KT 190V250 CAVOK 19/14 Q1020 NOSIG
 
LEJR - Jerez (civ/Mil), Spain
Distancia de la estación: SSO 78km
Actualización: 04/07/2022 01:00
Despejado
Despejado
 Viento del OSO
Viento: OSO 13 km/h
Temperatura: 20°C
Rocío: 17°C
Humedad: 83%
Barómetro: 1020 hPa
Resumen: Despejado
Visibilidad: más de 10 km
2022/07/03 23:00 LEJR 032300Z AUTO 25007KT CAVOK 20/17 Q1020